Terminal Aerodrome Forecast
Issued by NWS Greer, SC

Home | Current Version | Previous Version | Text Only | Print | Product List | Glossary On
Versions: 1 2 3 4 5 6 7 8 9 10 11 12 13 14 15 16 17 18 19 20 21 22 23 24 25 26 27 28 29 30 31 32 33 34 35 36 37 38 39 40 41
000
FTUS42 KGSP 192339
TAFCLT
TAF
KCLT 192339Z 2000/2024 07004KT P6SM SCT080 BKN200
     FM201100 05004KT P6SM BKN035 OVC060 PROB30 2011/2015 P6SM -RA
     FM201500 05004KT P6SM -RA OVC030
     FM201900 07003KT P6SM SCT020 OVC024=

USA.gov is the U.S. government's official web portal to all federal, state and local government web resources and services.